createdAt,value
2022-09-07T00:01:57.862Z,71.4
2022-09-07T00:13:57.908Z,78.4
2022-09-07T00:25:57.927Z,98.7
2022-09-07T00:37:57.937Z,98.7
2022-09-07T00:49:57.903Z,98.7
2022-09-07T01:01:58.081Z,98.6
2022-09-07T01:13:57.893Z,98.6
2022-09-07T01:25:57.860Z,98.6
2022-09-07T01:37:57.870Z,98.6
2022-09-07T01:49:57.876Z,98.6
2022-09-07T02:01:59.472Z,98.6
2022-09-07T02:13:57.868Z,98.6
2022-09-07T02:25:58.029Z,98.5
2022-09-07T02:37:57.865Z,98.5
2022-09-07T02:49:57.876Z,98.5
2022-09-07T03:01:57.862Z,98.5
2022-09-07T03:13:57.816Z,98.5
2022-09-07T03:25:57.876Z,98.5
2022-09-07T03:37:57.882Z,98.5
2022-09-07T03:49:58.466Z,98.5
2022-09-07T04:01:58.481Z,98.5
2022-09-07T04:13:58.506Z,98.5
2022-09-07T04:25:58.149Z,98.5
2022-09-07T04:37:57.929Z,98.4
2022-09-07T04:49:57.981Z,98.4
2022-09-07T05:01:58.614Z,98.5
2022-09-07T05:13:58.253Z,98.5
2022-09-07T05:25:57.849Z,98.5
2022-09-07T05:37:57.848Z,98.5
2022-09-07T05:49:57.864Z,98.5
2022-09-07T06:01:57.939Z,98.8
2022-09-07T06:13:57.966Z,98.8
2022-09-07T06:25:57.864Z,98.8
2022-09-07T06:37:57.860Z,98.7
2022-09-07T06:49:57.961Z,98.6
2022-09-07T07:01:57.869Z,98.9
2022-09-07T07:13:57.880Z,96.5
2022-09-07T07:25:57.872Z,98.9
2022-09-07T08:01:58.037Z,98.9
2022-09-07T08:13:57.865Z,99.0
2022-09-07T08:25:57.870Z,98.9
2022-09-07T08:37:58.810Z,98.9
2022-09-07T08:49:57.851Z,99.0
2022-09-07T09:02:27.855Z,99.1
2022-09-07T09:13:57.863Z,96.2
2022-09-07T09:25:57.867Z,93.0
2022-09-07T09:37:57.844Z,95.7
2022-09-07T09:49:57.894Z,81.7
2022-09-07T10:13:57.863Z,87.9
2022-09-07T10:25:57.848Z,87.5
2022-09-07T10:37:57.856Z,82.3
2022-09-07T10:50:22.861Z,79.7
2022-09-07T11:01:57.904Z,70.4
2022-09-07T11:14:12.645Z,74.1
2022-09-07T11:25:57.885Z,77.3
2022-09-07T11:37:57.856Z,74.5
2022-09-07T11:49:59.486Z,73.5
2022-09-07T12:01:57.882Z,70.8
2022-09-07T12:13:57.842Z,68.7
2022-09-07T12:25:57.867Z,63.9
2022-09-07T12:37:57.868Z,57.8
2022-09-07T12:49:57.899Z,59.0
2022-09-07T13:01:57.942Z,57.8
2022-09-07T13:14:08.447Z,51.8
2022-09-07T13:25:57.872Z,57.7
2022-09-07T13:37:57.863Z,55.0
2022-09-07T13:49:57.868Z,56.5
2022-09-07T14:01:57.905Z,52.3
2022-09-07T14:13:58.600Z,59.7
2022-09-07T14:26:17.986Z,55.5
2022-09-07T14:37:57.866Z,56.0
2022-09-07T14:49:57.876Z,58.7
2022-09-07T15:01:57.901Z,60.5
2022-09-07T15:13:57.855Z,60.7
2022-09-07T15:25:57.861Z,60.7
2022-09-07T15:38:02.439Z,59.5
2022-09-07T15:49:57.872Z,58.3
2022-09-07T16:01:58.514Z,58.5
2022-09-07T16:14:01.744Z,59.1
2022-09-07T16:25:57.892Z,61.5
2022-09-07T16:49:57.874Z,66.4
2022-09-07T17:01:57.935Z,64.7
2022-09-07T17:13:58.007Z,63.0
2022-09-07T17:25:57.975Z,61.6
2022-09-07T17:37:58.187Z,66.9
2022-09-07T17:49:57.923Z,70.2
2022-09-07T18:01:57.930Z,71.3
2022-09-07T18:13:57.875Z,71.8
2022-09-07T18:25:57.870Z,71.5
2022-09-07T18:37:57.846Z,74.6
2022-09-07T18:49:57.892Z,78.4
2022-09-07T19:02:03.595Z,78.6
2022-09-07T19:13:57.857Z,78.6
2022-09-07T19:25:57.865Z,77.8
2022-09-07T19:37:57.875Z,80.5
2022-09-07T19:49:57.889Z,83.1
2022-09-07T20:01:57.871Z,84.5
2022-09-07T20:13:57.872Z,80.5
2022-09-07T20:25:57.865Z,82.8
2022-09-07T20:37:57.849Z,87.7
2022-09-07T20:49:57.874Z,89.1
2022-09-07T21:01:57.904Z,82.2
2022-09-07T21:13:57.872Z,79.2
2022-09-07T21:25:57.882Z,78.0
2022-09-07T21:37:57.877Z,80.6
2022-09-07T21:49:57.905Z,86.3
2022-09-07T22:01:57.943Z,92.7
2022-09-07T22:13:57.871Z,95.3
2022-09-07T22:25:57.882Z,93.1
2022-09-07T22:37:57.865Z,92.3
2022-09-07T22:49:57.894Z,85.8
2022-09-07T23:01:57.874Z,94.6
2022-09-07T23:13:57.868Z,94.4
2022-09-07T23:25:57.885Z,89.7
2022-09-07T23:37:57.882Z,82.8
2022-09-07T23:49:57.830Z,95.9
